createdAt,value
2019-05-10T00:01:28.447Z,10.45
2019-05-10T00:03:54.590Z,10.44
2019-05-10T00:06:20.793Z,10.40
2019-05-10T00:08:47.113Z,10.36
2019-05-10T00:11:04.609Z,10.35
2019-05-10T00:13:16.274Z,10.33
2019-05-10T00:15:26.302Z,10.35
2019-05-10T00:17:36.333Z,10.37
2019-05-10T00:19:44.729Z,10.38
2019-05-10T00:21:52.924Z,10.40
2019-05-10T00:24:00.919Z,10.41
2019-05-10T00:26:09.373Z,10.44
2019-05-10T00:28:17.728Z,10.43
2019-05-10T00:30:25.811Z,10.42
2019-05-10T00:32:34.265Z,10.42
2019-05-10T00:34:42.223Z,10.43
2019-05-10T00:36:50.317Z,10.45
2019-05-10T00:38:58.514Z,10.47
2019-05-10T00:41:06.880Z,10.49
2019-05-10T00:43:15.166Z,10.51
2019-05-10T00:45:23.355Z,10.52
2019-05-10T00:47:31.543Z,10.53
2019-05-10T00:49:39.594Z,10.55
2019-05-10T00:51:48.001Z,10.56
2019-05-10T00:53:56.522Z,10.56
2019-05-10T00:56:04.957Z,10.56
2019-05-10T00:58:13.361Z,10.56
2019-05-10T01:00:21.813Z,10.54
2019-05-10T01:02:30.219Z,10.53
2019-05-10T01:04:38.425Z,10.51
2019-05-10T01:06:46.493Z,10.49
2019-05-10T01:08:54.571Z,10.48
2019-05-10T01:11:02.989Z,10.45
2019-05-10T01:13:11.443Z,10.45
2019-05-10T01:15:19.716Z,10.44
2019-05-10T01:17:28.037Z,10.44
2019-05-10T01:19:36.225Z,10.45
2019-05-10T01:21:44.312Z,10.46
2019-05-10T01:23:52.427Z,10.47
2019-05-10T01:26:00.614Z,10.47
2019-05-10T01:28:08.806Z,10.48
2019-05-10T01:30:17.572Z,10.47
2019-05-10T01:32:25.503Z,10.47
2019-05-10T01:34:33.693Z,10.49
2019-05-10T01:36:41.806Z,10.50
2019-05-10T01:38:49.989Z,10.49
2019-05-10T01:40:57.947Z,10.48
2019-05-10T01:43:06.403Z,10.48
2019-05-10T01:45:15.394Z,10.48
2019-05-10T01:47:23.755Z,10.49
2019-05-10T01:49:31.985Z,10.51
2019-05-10T01:51:40.366Z,10.53
2019-05-10T01:53:50.294Z,10.55
2019-05-10T01:55:58.423Z,10.57
2019-05-10T01:58:06.707Z,10.57
2019-05-10T02:00:15.950Z,10.56
2019-05-10T02:02:24.169Z,10.54
2019-05-10T02:04:32.307Z,10.53
2019-05-10T02:06:40.691Z,10.52
2019-05-10T02:08:48.593Z,10.49
2019-05-10T02:10:56.876Z,10.49
2019-05-10T02:13:05.505Z,10.49
2019-05-10T02:15:14.334Z,10.49
2019-05-10T02:17:22.221Z,10.48
2019-05-10T02:19:30.670Z,10.49
2019-05-10T02:21:38.971Z,10.49
2019-05-10T02:23:47.051Z,10.51
2019-05-10T02:26:08.318Z,10.51
2019-05-10T02:28:05.587Z,10.50
2019-05-10T02:30:14.990Z,10.48
2019-05-10T02:32:23.171Z,10.45
2019-05-10T02:34:31.613Z,10.42
2019-05-10T02:36:40.491Z,10.40
2019-05-10T02:38:48.393Z,10.39
2019-05-10T02:40:56.971Z,10.40
2019-05-10T02:43:05.352Z,10.40
2019-05-10T02:45:14.073Z,10.41
2019-05-10T02:47:22.486Z,10.39
2019-05-10T02:49:30.963Z,10.41
2019-05-10T02:51:39.313Z,10.41
2019-05-10T02:53:47.822Z,10.41
2019-05-10T02:55:57.358Z,10.42
2019-05-10T02:58:05.781Z,10.45
2019-05-10T03:00:16.205Z,10.49
2019-05-10T03:02:25.524Z,10.54
2019-05-10T03:04:36.963Z,10.56
2019-05-10T03:06:46.745Z,10.59
2019-05-10T03:08:55.669Z,10.61
2019-05-10T03:11:04.071Z,10.61
2019-05-10T03:13:16.053Z,10.59
2019-05-10T03:15:25.037Z,10.58
2019-05-10T03:17:33.395Z,10.61
2019-05-10T03:19:43.338Z,10.62
2019-05-10T03:21:59.202Z,10.66
2019-05-10T03:24:07.571Z,10.71
2019-05-10T03:26:16.070Z,10.68
2019-05-10T03:28:24.529Z,10.70
2019-05-10T03:30:32.946Z,10.72
2019-05-10T03:32:41.178Z,10.72
2019-05-10T03:34:49.147Z,10.73
2019-05-10T03:36:57.949Z,10.75
2019-05-10T03:39:07.501Z,10.71
2019-05-10T03:41:15.817Z,10.70
2019-05-10T03:43:24.391Z,10.68
2019-05-10T03:45:32.786Z,10.66
2019-05-10T03:47:41.077Z,10.64
2019-05-10T03:49:49.501Z,10.61
2019-05-10T03:51:57.804Z,10.58
2019-05-10T03:54:06.355Z,10.58
2019-05-10T03:56:14.634Z,10.58
2019-05-10T03:58:22.924Z,10.58
2019-05-10T04:00:32.205Z,10.59
2019-05-10T04:02:40.596Z,10.59
2019-05-10T04:04:48.577Z,10.59
2019-05-10T04:06:56.772Z,10.58
2019-05-10T04:09:07.185Z,10.58
2019-05-10T04:11:15.345Z,10.57
2019-05-10T04:13:23.340Z,10.57
2019-05-10T04:15:31.730Z,10.57
2019-05-10T04:17:40.058Z,10.56
2019-05-10T04:19:49.344Z,10.56
2019-05-10T04:21:57.640Z,10.53
2019-05-10T04:24:05.721Z,10.56
2019-05-10T04:26:13.708Z,10.58
2019-05-10T04:28:21.886Z,10.59
2019-05-10T04:30:31.762Z,10.61
2019-05-10T04:32:40.515Z,10.63
2019-05-10T04:34:48.697Z,10.68
2019-05-10T04:36:57.105Z,10.69
2019-05-10T04:39:07.493Z,10.72
2019-05-10T04:41:15.847Z,10.75
2019-05-10T04:43:24.144Z,10.76
2019-05-10T04:45:32.664Z,10.80
2019-05-10T04:47:41.043Z,10.85
2019-05-10T04:49:49.268Z,10.86
2019-05-10T04:51:57.542Z,10.88
2019-05-10T04:54:06.104Z,10.94
2019-05-10T04:56:14.515Z,10.97
2019-05-10T04:58:22.503Z,11.00
2019-05-10T05:00:30.855Z,11.02
2019-05-10T05:02:39.169Z,11.02
2019-05-10T05:04:47.256Z,11.01
2019-05-10T05:06:56.127Z,11.05
2019-05-10T05:09:06.840Z,11.05
2019-05-10T05:11:15.132Z,11.08
2019-05-10T05:13:23.316Z,11.11
2019-05-10T05:15:31.624Z,11.11
2019-05-10T05:17:40.470Z,11.10
2019-05-10T05:19:48.869Z,11.13
2019-05-10T05:21:57.268Z,11.11
2019-05-10T05:24:05.654Z,11.19
2019-05-10T05:26:13.910Z,11.25
2019-05-10T05:28:23.265Z,11.29
2019-05-10T05:30:32.296Z,11.33
2019-05-10T05:32:44.454Z,11.37
2019-05-10T05:34:50.274Z,11.46
2019-05-10T05:36:58.467Z,11.54
2019-05-10T05:39:08.724Z,11.47
2019-05-10T05:41:17.026Z,11.60
2019-05-10T05:43:25.310Z,11.49
2019-05-10T05:45:35.323Z,11.58
2019-05-10T05:47:44.802Z,11.65
2019-05-10T05:49:53.350Z,11.74
2019-05-10T05:52:01.494Z,11.68
2019-05-10T05:54:15.053Z,11.79
2019-05-10T05:56:19.965Z,11.87
2019-05-10T05:58:29.324Z,11.96
2019-05-10T06:00:44.810Z,11.98
2019-05-10T06:02:47.730Z,12.02
2019-05-10T06:04:56.017Z,12.07
2019-05-10T06:07:04.137Z,12.18
2019-05-10T06:09:12.531Z,12.25
2019-05-10T06:11:20.816Z,12.26
2019-05-10T06:13:30.699Z,12.28
2019-05-10T06:15:39.496Z,12.29
2019-05-10T06:17:56.104Z,12.30
2019-05-10T06:20:00.876Z,12.33
2019-05-10T06:22:07.896Z,12.35
2019-05-10T06:24:16.050Z,12.33
2019-05-10T06:26:28.618Z,12.32
2019-05-10T06:28:57.333Z,12.41
2019-05-10T06:30:45.589Z,12.42
2019-05-10T06:33:00.965Z,12.40
2019-05-10T06:35:08.045Z,12.34
2019-05-10T06:37:16.131Z,12.43
2019-05-10T06:39:24.581Z,12.55
2019-05-10T06:41:32.804Z,12.61
2019-05-10T06:43:45.822Z,12.67
2019-05-10T06:45:52.581Z,12.72
2019-05-10T06:48:01.158Z,12.72
2019-05-10T06:50:10.372Z,12.80
2019-05-10T06:52:21.902Z,12.83
2019-05-10T06:54:28.566Z,12.85
2019-05-10T06:56:37.057Z,12.84
2019-05-10T06:58:45.247Z,12.79
2019-05-10T07:00:53.411Z,12.88
2019-05-10T07:03:01.702Z,12.89
2019-05-10T07:05:10.859Z,12.84
2019-05-10T07:07:33.189Z,12.90
2019-05-10T07:09:59.333Z,12.93
2019-05-10T07:11:40.630Z,13.00
2019-05-10T07:13:52.865Z,13.09
2019-05-10T07:15:58.783Z,13.15
2019-05-10T07:18:07.704Z,13.15
2019-05-10T07:20:16.293Z,13.22
2019-05-10T07:22:26.994Z,13.27
2019-05-10T07:24:34.489Z,13.30
2019-05-10T07:26:42.481Z,13.33
2019-05-10T07:28:51.783Z,13.38
2019-05-10T07:31:00.921Z,13.39
2019-05-10T07:33:10.205Z,13.41
2019-05-10T07:35:19.206Z,13.41
2019-05-10T07:37:27.687Z,13.42
2019-05-10T07:39:35.980Z,13.34
2019-05-10T07:41:44.497Z,13.45
2019-05-10T07:43:52.979Z,13.48
2019-05-10T07:46:06.559Z,13.57
2019-05-10T07:48:11.071Z,13.68
2019-05-10T07:50:20.160Z,13.79
2019-05-10T07:52:29.534Z,13.87
2019-05-10T07:54:45.187Z,13.91
2019-05-10T07:56:47.931Z,13.93
2019-05-10T07:58:56.415Z,13.99
2019-05-10T08:01:04.417Z,14.05
2019-05-10T08:03:16.804Z,14.11
2019-05-10T08:05:22.723Z,14.18
2019-05-10T08:07:31.021Z,14.21
2019-05-10T08:09:44.835Z,14.29
2019-05-10T08:11:54.131Z,14.45
2019-05-10T08:14:06.329Z,14.52
2019-05-10T08:16:11.780Z,14.60
2019-05-10T08:18:23.482Z,14.65
2019-05-10T08:20:45.792Z,14.70
2019-05-10T08:22:45.930Z,14.84
2019-05-10T08:24:55.891Z,14.92
2019-05-10T08:27:08.064Z,15.05
2019-05-10T08:29:15.157Z,15.14
2019-05-10T08:31:23.002Z,15.26
2019-05-10T08:33:32.813Z,15.43
2019-05-10T08:35:45.940Z,15.38
2019-05-10T08:37:53.006Z,15.22
2019-05-10T08:40:03.130Z,15.34
2019-05-10T08:42:32.120Z,15.35
2019-05-10T08:44:23.968Z,15.48
2019-05-10T08:46:40.597Z,15.55
2019-05-10T08:48:46.139Z,15.67
2019-05-10T08:50:57.054Z,15.81
2019-05-10T08:53:10.552Z,15.83
2019-05-10T08:55:12.638Z,15.82
2019-05-10T08:57:22.276Z,15.64
2019-05-10T08:59:30.983Z,15.29
2019-05-10T09:01:46.487Z,15.28
2019-05-10T09:03:55.098Z,15.37
2019-05-10T09:06:03.534Z,15.48
2019-05-10T09:08:13.547Z,15.42
2019-05-10T09:10:19.456Z,15.60
2019-05-10T09:12:29.545Z,15.59
2019-05-10T09:14:37.898Z,15.77
2019-05-10T09:16:56.307Z,15.86
2019-05-10T09:18:56.286Z,15.89
2019-05-10T09:21:08.873Z,16.10
2019-05-10T09:23:19.904Z,16.28
2019-05-10T09:25:28.786Z,16.37
2019-05-10T09:27:34.635Z,16.32
2019-05-10T09:29:43.170Z,15.88
2019-05-10T09:31:53.466Z,16.01
2019-05-10T09:34:02.422Z,15.97
2019-05-10T09:36:12.427Z,15.84
2019-05-10T09:38:22.156Z,16.00
2019-05-10T09:40:32.689Z,16.20
2019-05-10T09:42:43.517Z,16.40
2019-05-10T09:44:52.704Z,16.54
2019-05-10T09:47:01.938Z,16.57
2019-05-10T09:49:15.728Z,16.67
2019-05-10T09:51:27.947Z,16.77
2019-05-10T09:53:30.992Z,16.78
2019-05-10T09:55:39.287Z,16.81
2019-05-10T09:57:48.089Z,16.92
2019-05-10T09:59:57.262Z,16.89
2019-05-10T10:02:14.628Z,16.72
2019-05-10T10:04:17.826Z,16.45
2019-05-10T10:06:29.559Z,16.74
2019-05-10T10:08:38.424Z,16.70
2019-05-10T10:10:47.757Z,16.69
2019-05-10T10:12:58.370Z,16.39
2019-05-10T10:15:09.564Z,16.39
2019-05-10T10:17:20.420Z,16.29
2019-05-10T10:19:27.779Z,16.63
2019-05-10T10:21:38.933Z,16.80
2019-05-10T10:23:46.531Z,16.68
2019-05-10T10:25:54.449Z,16.40
2019-05-10T10:28:02.344Z,16.04
2019-05-10T10:30:17.613Z,16.17
2019-05-10T10:32:24.668Z,16.50
2019-05-10T10:34:32.505Z,16.72
2019-05-10T10:36:43.952Z,16.96
2019-05-10T10:38:49.949Z,16.91
2019-05-10T10:40:58.028Z,16.04
2019-05-10T10:43:07.440Z,16.07
2019-05-10T10:45:17.361Z,16.24
2019-05-10T10:47:28.301Z,16.34
2019-05-10T10:49:37.829Z,16.19
2019-05-10T10:51:47.245Z,16.17
2019-05-10T10:53:58.042Z,16.15
2019-05-10T10:56:07.475Z,16.26
2019-05-10T10:58:14.995Z,16.48
2019-05-10T11:00:33.537Z,16.58
2019-05-10T11:02:41.945Z,16.74
2019-05-10T11:04:51.053Z,16.90
2019-05-10T11:07:09.853Z,16.79
2019-05-10T11:09:09.694Z,16.87
2019-05-10T11:11:17.517Z,16.75
2019-05-10T11:13:41.598Z,16.86
2019-05-10T11:15:36.474Z,16.79
2019-05-10T11:17:44.842Z,17.07
2019-05-10T11:19:52.735Z,17.37
2019-05-10T11:22:04.363Z,17.57
2019-05-10T11:24:18.557Z,17.66
2019-05-10T11:26:21.741Z,17.71
2019-05-10T11:28:38.479Z,18.00
2019-05-10T11:30:39.309Z,17.78
2019-05-10T11:32:47.368Z,17.53
2019-05-10T11:34:55.301Z,17.69
2019-05-10T11:37:03.349Z,17.56
2019-05-10T11:39:25.688Z,17.71
2019-05-10T11:41:24.318Z,17.80
2019-05-10T11:43:31.355Z,17.97
2019-05-10T11:45:41.995Z,17.99
2019-05-10T11:47:54.306Z,17.95
2019-05-10T11:49:58.757Z,18.09
2019-05-10T11:52:10.783Z,17.92
2019-05-10T11:54:17.964Z,18.25
2019-05-10T11:56:27.703Z,18.21
2019-05-10T12:00:45.151Z,17.79
2019-05-10T12:03:07.694Z,17.85
2019-05-10T12:05:16.638Z,17.75
2019-05-10T12:07:14.726Z,17.42
2019-05-10T12:09:24.518Z,17.69
2019-05-10T12:11:34.120Z,17.85
2019-05-10T12:13:42.200Z,18.10
2019-05-10T12:15:51.979Z,18.12
2019-05-10T12:18:04.551Z,18.09
2019-05-10T12:20:12.570Z,18.09
2019-05-10T12:22:21.734Z,18.25
2019-05-10T12:24:46.275Z,18.49
2019-05-10T12:26:00.229Z,18.15
2019-05-10T12:28:51.155Z,18.82
2019-05-10T12:31:01.397Z,18.71
2019-05-10T12:33:23.634Z,18.56
2019-05-10T12:35:21.328Z,18.61
2019-05-10T12:37:30.801Z,18.81
2019-05-10T12:39:38.868Z,18.96
2019-05-10T12:41:49.730Z,19.05
2019-05-10T12:44:03.312Z,19.17
2019-05-10T12:46:06.788Z,19.25
2019-05-10T12:48:14.809Z,19.10
2019-05-10T12:50:23.350Z,18.81
2019-05-10T12:52:32.165Z,18.35
2019-05-10T12:54:41.448Z,18.37
2019-05-10T12:56:49.880Z,18.50
2019-05-10T12:58:59.631Z,18.83
2019-05-10T13:01:08.506Z,18.97
2019-05-10T13:03:19.235Z,19.20
2019-05-10T13:05:32.222Z,19.40
2019-05-10T13:07:37.555Z,19.61
2019-05-10T13:09:49.612Z,19.61
2019-05-10T13:12:02.658Z,19.73
2019-05-10T13:14:07.732Z,19.68
2019-05-10T13:16:16.697Z,19.08
2019-05-10T13:18:49.045Z,18.92
2019-05-10T13:20:36.723Z,18.57
2019-05-10T13:22:44.636Z,18.69
2019-05-10T13:24:52.602Z,18.75
2019-05-10T13:27:03.523Z,18.82
2019-05-10T13:29:13.554Z,19.07
2019-05-10T13:31:21.928Z,19.38
2019-05-10T13:33:40.725Z,19.37
2019-05-10T13:35:40.441Z,19.69
2019-05-10T13:37:48.958Z,20.01
2019-05-10T13:39:58.136Z,20.22
2019-05-10T13:42:09.688Z,20.35
2019-05-10T13:44:18.172Z,20.60
2019-05-10T13:46:26.276Z,20.76
2019-05-10T13:48:34.501Z,19.96
2019-05-10T13:50:42.684Z,19.64
2019-05-10T13:52:52.621Z,19.67
2019-05-10T13:55:01.042Z,19.83
2019-05-10T13:57:09.748Z,19.93
2019-05-10T13:59:18.202Z,19.61
2019-05-10T14:01:27.297Z,19.80
2019-05-10T14:03:43.749Z,19.91
2019-05-10T14:05:45.876Z,19.93
2019-05-10T14:07:54.297Z,20.03
2019-05-10T14:10:02.682Z,19.71
2019-05-10T14:12:16.306Z,19.95
2019-05-10T14:14:26.457Z,19.85
2019-05-10T14:16:32.977Z,19.93
2019-05-10T14:18:41.167Z,19.99
2019-05-10T14:20:49.436Z,20.02
2019-05-10T14:22:58.912Z,20.32
2019-05-10T14:25:08.590Z,20.24
2019-05-10T14:27:17.043Z,20.57
2019-05-10T14:29:33.338Z,20.65
2019-05-10T14:31:35.441Z,20.84
2019-05-10T14:33:49.540Z,20.78
2019-05-10T14:35:55.145Z,20.14
2019-05-10T14:38:08.278Z,19.81
2019-05-10T14:40:17.070Z,19.42
2019-05-10T14:42:30.419Z,19.53
2019-05-10T14:44:33.313Z,19.23
2019-05-10T14:46:41.695Z,19.44
2019-05-10T14:48:50.670Z,19.36
2019-05-10T14:51:02.898Z,19.50
2019-05-10T14:53:08.998Z,18.78
2019-05-10T14:55:17.508Z,18.66
2019-05-10T14:57:25.519Z,18.67
2019-05-10T14:59:33.835Z,18.48
2019-05-10T15:01:44.726Z,18.48
2019-05-10T15:03:52.311Z,18.75
2019-05-10T15:06:01.616Z,18.54
2019-05-10T15:08:10.147Z,18.69
2019-05-10T15:10:18.475Z,18.85
2019-05-10T15:12:26.777Z,18.92
2019-05-10T15:14:35.254Z,19.26
2019-05-10T15:16:43.690Z,19.19
2019-05-10T15:18:51.859Z,19.39
2019-05-10T15:21:01.109Z,19.46
2019-05-10T15:23:09.550Z,19.58
2019-05-10T15:25:17.880Z,19.48
2019-05-10T15:27:26.310Z,19.65
2019-05-10T15:29:34.758Z,19.65
2019-05-10T15:31:42.702Z,19.73
2019-05-10T15:33:51.160Z,19.49
2019-05-10T15:35:59.680Z,19.62
2019-05-10T15:38:08.073Z,19.83
2019-05-10T15:40:16.672Z,20.03
2019-05-10T15:42:30.493Z,20.11
2019-05-10T15:44:35.947Z,20.15
2019-05-10T15:46:44.283Z,20.01
2019-05-10T15:48:52.410Z,19.98
2019-05-10T15:51:00.486Z,20.05
2019-05-10T15:53:08.657Z,19.91
2019-05-10T15:55:25.848Z,19.46
2019-05-10T15:57:26.998Z,18.59
2019-05-10T15:59:35.371Z,18.25
2019-05-10T16:01:45.606Z,18.13
2019-05-10T16:03:53.577Z,18.28
2019-05-10T16:06:01.671Z,18.32
2019-05-10T16:08:13.386Z,18.54
2019-05-10T16:10:20.227Z,18.58
2019-05-10T16:12:28.223Z,18.65
2019-05-10T16:14:39.130Z,18.40
2019-05-10T16:16:46.666Z,18.22
2019-05-10T16:18:54.945Z,18.37
2019-05-10T16:21:03.025Z,18.32
2019-05-10T16:23:11.337Z,18.27
2019-05-10T16:25:19.772Z,18.09
2019-05-10T16:27:28.009Z,18.06
2019-05-10T16:29:39.738Z,17.97
2019-05-10T16:31:45.951Z,17.83
2019-05-10T16:33:55.726Z,17.63
2019-05-10T16:36:03.900Z,17.54
2019-05-10T16:38:11.987Z,17.49
2019-05-10T16:40:20.444Z,17.64
2019-05-10T16:42:34.401Z,17.69
2019-05-10T16:44:38.177Z,17.76
2019-05-10T16:46:46.583Z,17.82
2019-05-10T16:48:54.968Z,17.75
2019-05-10T16:51:03.769Z,17.22
2019-05-10T16:53:14.331Z,17.41
2019-05-10T16:55:22.318Z,17.26
2019-05-10T16:57:32.122Z,17.23
2019-05-10T16:59:40.821Z,17.29
2019-05-10T17:01:49.005Z,16.96
2019-05-10T17:04:00.588Z,17.10
2019-05-10T17:06:07.337Z,16.68
2019-05-10T17:08:15.620Z,16.67
2019-05-10T17:10:26.961Z,16.74
2019-05-10T17:12:33.727Z,16.67
2019-05-10T17:14:41.714Z,16.73
2019-05-10T17:16:58.303Z,16.82
2019-05-10T17:18:59.778Z,16.60
2019-05-10T17:21:07.728Z,16.69
2019-05-10T17:23:15.710Z,16.67
2019-05-10T17:25:23.631Z,16.60
2019-05-10T17:27:31.518Z,16.46
2019-05-10T17:29:44.481Z,16.37
2019-05-10T17:31:50.904Z,16.44
2019-05-10T17:33:59.167Z,16.26
2019-05-10T17:36:08.723Z,16.25
2019-05-10T17:38:16.844Z,16.26
2019-05-10T17:40:25.018Z,16.32
2019-05-10T17:42:35.554Z,16.31
2019-05-10T17:44:44.291Z,16.37
2019-05-10T17:46:55.310Z,16.29
2019-05-10T17:49:01.978Z,15.97
2019-05-10T17:51:10.064Z,16.01
2019-05-10T17:53:18.045Z,15.99
2019-05-10T17:55:25.942Z,15.84
2019-05-10T17:57:33.854Z,15.82
2019-05-10T17:59:46.809Z,15.84
2019-05-10T18:01:52.065Z,15.86
2019-05-10T18:03:59.973Z,15.89
2019-05-10T18:06:21.969Z,15.87
2019-05-10T18:08:17.575Z,15.93
2019-05-10T18:10:25.648Z,15.88
2019-05-10T18:12:33.949Z,15.89
2019-05-10T18:14:42.832Z,15.89
2019-05-10T18:16:50.941Z,15.79
2019-05-10T18:18:59.234Z,15.75
2019-05-10T18:21:08.120Z,15.72
2019-05-10T18:23:21.084Z,15.69
2019-05-10T18:25:26.012Z,15.49
2019-05-10T18:27:33.889Z,15.51
2019-05-10T18:29:41.992Z,15.54
2019-05-10T18:31:55.850Z,15.47
2019-05-10T18:33:59.581Z,15.23
2019-05-10T18:36:10.821Z,15.05
2019-05-10T18:38:17.483Z,15.13
2019-05-10T18:40:31.805Z,15.30
2019-05-10T18:42:35.152Z,15.29
2019-05-10T18:44:45.721Z,15.37
2019-05-10T18:46:53.023Z,15.38
2019-05-10T18:49:00.984Z,15.40
2019-05-10T18:51:09.577Z,15.42
2019-05-10T18:53:17.679Z,15.44
2019-05-10T18:55:26.303Z,15.42
2019-05-10T18:57:34.412Z,15.38
2019-05-10T18:59:47.105Z,15.35
2019-05-10T19:01:56.248Z,15.35
2019-05-10T19:04:07.414Z,15.31
2019-05-10T19:06:15.321Z,15.19
2019-05-10T19:08:24.103Z,15.20
2019-05-10T19:10:32.393Z,15.19
2019-05-10T19:12:40.886Z,15.12
2019-05-10T19:14:49.657Z,15.09
2019-05-10T19:16:57.580Z,14.98
2019-05-10T19:19:05.661Z,14.89
2019-05-10T19:21:14.215Z,14.84
2019-05-10T19:23:22.542Z,14.68
2019-05-10T19:25:30.924Z,14.56
2019-05-10T19:27:44.742Z,14.55
2019-05-10T19:29:48.945Z,14.40
2019-05-10T19:31:57.062Z,14.20
2019-05-10T19:34:09.016Z,14.19
2019-05-10T19:36:15.005Z,14.07
2019-05-10T19:38:22.904Z,14.12
2019-05-10T19:40:31.689Z,14.12
2019-05-10T19:42:43.117Z,14.12
2019-05-10T19:44:49.135Z,14.17
2019-05-10T19:46:57.204Z,13.90
2019-05-10T19:49:07.544Z,13.98
2019-05-10T19:51:16.119Z,13.89
2019-05-10T19:53:25.029Z,13.92
2019-05-10T19:55:32.990Z,13.95
2019-05-10T19:57:41.338Z,13.92
2019-05-10T20:02:10.562Z,14.07
2019-05-10T20:04:18.608Z,14.08
2019-05-10T20:06:26.592Z,14.11
2019-05-10T20:08:34.655Z,14.14
2019-05-10T20:10:42.859Z,14.13
2019-05-10T20:12:50.749Z,14.13
2019-05-10T20:14:58.841Z,14.14
2019-05-10T20:17:06.730Z,14.04
2019-05-10T20:19:14.638Z,13.95
2019-05-10T20:21:22.551Z,13.92
2019-05-10T20:23:31.092Z,13.93
2019-05-10T20:25:39.418Z,13.90
2019-05-10T20:27:47.461Z,13.86
2019-05-10T20:29:55.350Z,13.82
2019-05-10T20:32:03.251Z,13.79
2019-05-10T20:34:11.763Z,13.72
2019-05-10T20:36:19.787Z,13.63
2019-05-10T20:38:27.587Z,13.56
2019-05-10T20:40:37.235Z,13.45
2019-05-10T20:42:45.350Z,13.30
2019-05-10T20:45:06.895Z,13.21
2019-05-10T20:47:02.868Z,13.17
2019-05-10T20:49:10.912Z,13.12
2019-05-10T20:51:19.074Z,13.12
2019-05-10T20:53:27.212Z,13.11
2019-05-10T20:55:35.376Z,12.98
2019-05-10T20:57:43.360Z,13.01
2019-05-10T20:59:51.346Z,12.99
2019-05-10T21:01:59.233Z,12.93
2019-05-10T21:04:07.679Z,12.92
2019-05-10T21:06:15.803Z,12.94
2019-05-10T21:08:23.695Z,12.97
2019-05-10T21:10:31.591Z,12.99
2019-05-10T21:12:39.518Z,13.00
2019-05-10T21:14:47.420Z,13.03
2019-05-10T21:16:55.378Z,13.04
2019-05-10T21:19:03.403Z,13.00
2019-05-10T21:21:11.427Z,13.00
2019-05-10T21:23:20.911Z,13.01
2019-05-10T21:25:29.029Z,12.92
2019-05-10T21:27:37.367Z,12.97
2019-05-10T21:29:45.264Z,13.00
2019-05-10T21:31:53.297Z,13.00
2019-05-10T21:34:09.822Z,12.95
2019-05-10T21:36:10.974Z,12.93
2019-05-10T21:38:31.888Z,12.89
2019-05-10T21:40:28.438Z,12.82
2019-05-10T21:42:36.334Z,12.77
2019-05-10T21:44:44.253Z,12.66
2019-05-10T21:46:53.783Z,12.63
2019-05-10T21:49:01.991Z,12.60
2019-05-10T21:51:10.909Z,12.61
2019-05-10T21:53:18.796Z,12.62
2019-05-10T21:55:26.693Z,12.61
2019-05-10T21:57:34.788Z,12.63
2019-05-10T21:59:42.680Z,12.64
2019-05-10T22:01:50.731Z,12.67
2019-05-10T22:03:58.742Z,12.70
2019-05-10T22:06:06.703Z,12.72
2019-05-10T22:08:14.589Z,12.72
2019-05-10T22:10:22.582Z,12.71
2019-05-10T22:12:30.478Z,12.72
2019-05-10T22:14:38.466Z,12.70
2019-05-10T22:16:46.492Z,12.72
2019-05-10T22:19:01.892Z,12.71
2019-05-10T22:21:09.828Z,12.68
2019-05-10T22:23:17.756Z,12.58
2019-05-10T22:25:25.651Z,12.55
2019-05-10T22:27:34.528Z,12.44
2019-05-10T22:29:42.448Z,12.45
2019-05-10T22:31:50.339Z,12.45
2019-05-10T22:33:58.304Z,12.46
2019-05-10T22:36:06.229Z,12.45
2019-05-10T22:38:14.169Z,12.42
2019-05-10T22:40:22.483Z,12.43
2019-05-10T22:42:30.887Z,12.41
2019-05-10T22:44:38.773Z,12.40
2019-05-10T22:46:46.815Z,12.42
2019-05-10T22:48:54.733Z,12.40
2019-05-10T22:51:03.695Z,12.39
2019-05-10T22:53:11.590Z,12.36
2019-05-10T22:55:19.508Z,12.35
2019-05-10T22:57:27.507Z,12.34
2019-05-10T22:59:35.464Z,12.34
2019-05-10T23:01:43.685Z,12.36
2019-05-10T23:03:51.576Z,12.38
2019-05-10T23:05:59.473Z,12.39
2019-05-10T23:08:07.469Z,12.41
2019-05-10T23:10:15.628Z,12.40
2019-05-10T23:12:23.520Z,12.40
2019-05-10T23:14:31.441Z,12.39
2019-05-10T23:16:39.327Z,12.36
2019-05-10T23:18:47.286Z,12.33
2019-05-10T23:20:55.220Z,12.32
2019-05-10T23:23:03.145Z,12.31
2019-05-10T23:25:11.107Z,12.26
2019-05-10T23:27:19.015Z,12.19
2019-05-10T23:29:26.917Z,12.12
2019-05-10T23:31:35.573Z,12.09
2019-05-10T23:33:43.925Z,12.10
2019-05-10T23:35:51.912Z,12.05
2019-05-10T23:38:01.008Z,12.01
2019-05-10T23:40:09.583Z,11.96
2019-05-10T23:42:20.513Z,11.95
2019-05-10T23:44:28.400Z,11.95
2019-05-10T23:46:36.337Z,11.91
2019-05-10T23:48:45.867Z,11.72
2019-05-10T23:50:54.760Z,11.57
2019-05-10T23:53:02.733Z,11.54
2019-05-10T23:55:10.895Z,11.61
2019-05-10T23:57:18.850Z,11.47
2019-05-10T23:59:26.763Z,11.49
